sensor_id;sensor_type;location;lat;lon;timestamp;P1;durP1;ratioP1;P2;durP2;ratioP2
69152;SDS011;56261;51.580;4.578;2022-07-23T00:00:45;10.40;;;4.57;;
69152;SDS011;56261;51.580;4.578;2022-07-23T00:03:12;9.50;;;5.22;;
69152;SDS011;56261;51.580;4.578;2022-07-23T00:05:37;8.77;;;4.50;;
69152;SDS011;56261;51.580;4.578;2022-07-23T00:08:03;10.02;;;4.95;;
69152;SDS011;56261;51.580;4.578;2022-07-23T00:10:29;8.80;;;4.97;;
69152;SDS011;56261;51.580;4.578;2022-07-23T00:12:54;11.00;;;4.60;;
69152;SDS011;56261;51.580;4.578;2022-07-23T00:15:20;10.60;;;4.70;;
69152;SDS011;56261;51.580;4.578;2022-07-23T00:17:45;12.27;;;4.67;;
69152;SDS011;56261;51.580;4.578;2022-07-23T00:20:14;10.18;;;5.55;;
69152;SDS011;56261;51.580;4.578;2022-07-23T00:22:48;11.00;;;4.97;;
69152;SDS011;56261;51.580;4.578;2022-07-23T00:25:15;12.63;;;4.70;;
69152;SDS011;56261;51.580;4.578;2022-07-23T00:27:41;9.53;;;4.50;;
69152;SDS011;56261;51.580;4.578;2022-07-23T00:30:07;10.93;;;4.88;;
69152;SDS011;56261;51.580;4.578;2022-07-23T00:32:44;12.45;;;5.25;;
69152;SDS011;56261;51.580;4.578;2022-07-23T00:35:10;11.30;;;5.20;;
69152;SDS011;56261;51.580;4.578;2022-07-23T00:37:35;12.57;;;4.80;;
69152;SDS011;56261;51.580;4.578;2022-07-23T00:40:01;10.87;;;4.90;;
69152;SDS011;56261;51.580;4.578;2022-07-23T00:42:26;9.60;;;5.13;;
69152;SDS011;56261;51.580;4.578;2022-07-23T00:44:52;10.55;;;4.88;;
69152;SDS011;56261;51.580;4.578;2022-07-23T00:47:17;10.80;;;4.67;;
69152;SDS011;56261;51.580;4.578;2022-07-23T00:49:42;10.47;;;5.00;;
69152;SDS011;56261;51.580;4.578;2022-07-23T00:52:08;10.93;;;4.90;;
69152;SDS011;56261;51.580;4.578;2022-07-23T00:54:33;9.97;;;4.77;;
69152;SDS011;56261;51.580;4.578;2022-07-23T00:56:59;9.75;;;5.20;;
69152;SDS011;56261;51.580;4.578;2022-07-23T00:59:24;8.90;;;4.50;;
69152;SDS011;56261;51.580;4.578;2022-07-23T01:01:49;9.73;;;4.77;;
69152;SDS011;56261;51.580;4.578;2022-07-23T01:04:15;9.23;;;4.40;;
69152;SDS011;56261;51.580;4.578;2022-07-23T01:06:41;9.98;;;4.00;;
69152;SDS011;56261;51.580;4.578;2022-07-23T01:09:08;10.30;;;4.57;;
69152;SDS011;56261;51.580;4.578;2022-07-23T01:11:34;10.93;;;4.30;;
69152;SDS011;56261;51.580;4.578;2022-07-23T01:14:14;11.82;;;4.95;;
69152;SDS011;56261;51.580;4.578;2022-07-23T01:16:41;10.63;;;4.15;;
69152;SDS011;56261;51.580;4.578;2022-07-23T01:19:07;9.20;;;4.38;;
69152;SDS011;56261;51.580;4.578;2022-07-23T01:21:37;8.63;;;4.17;;
69152;SDS011;56261;51.580;4.578;2022-07-23T01:24:05;9.27;;;4.18;;
69152;SDS011;56261;51.580;4.578;2022-07-23T01:26:30;9.52;;;4.50;;
69152;SDS011;56261;51.580;4.578;2022-07-23T01:28:56;9.67;;;4.23;;
69152;SDS011;56261;51.580;4.578;2022-07-23T01:31:21;10.60;;;4.80;;
69152;SDS011;56261;51.580;4.578;2022-07-23T01:33:47;7.90;;;4.20;;
69152;SDS011;56261;51.580;4.578;2022-07-23T01:36:13;10.57;;;4.88;;
69152;SDS011;56261;51.580;4.578;2022-07-23T01:38:39;10.70;;;4.77;;
69152;SDS011;56261;51.580;4.578;2022-07-23T01:41:04;9.07;;;4.67;;
69152;SDS011;56261;51.580;4.578;2022-07-23T01:43:29;10.40;;;5.05;;
69152;SDS011;56261;51.580;4.578;2022-07-23T01:45:55;10.07;;;5.57;;
69152;SDS011;56261;51.580;4.578;2022-07-23T01:48:20;10.17;;;5.10;;
69152;SDS011;56261;51.580;4.578;2022-07-23T01:50:46;9.97;;;5.43;;
69152;SDS011;56261;51.580;4.578;2022-07-23T01:53:13;11.40;;;5.10;;
69152;SDS011;56261;51.580;4.578;2022-07-23T01:55:39;9.57;;;4.93;;
69152;SDS011;56261;51.580;4.578;2022-07-23T01:58:04;9.93;;;5.00;;
69152;SDS011;56261;51.580;4.578;2022-07-23T02:00:30;12.00;;;5.05;;
69152;SDS011;56261;51.580;4.578;2022-07-23T02:02:56;12.70;;;5.30;;
69152;SDS011;56261;51.580;4.578;2022-07-23T02:05:23;10.90;;;5.30;;
69152;SDS011;56261;51.580;4.578;2022-07-23T02:07:49;10.98;;;4.82;;
69152;SDS011;56261;51.580;4.578;2022-07-23T02:10:15;9.88;;;5.05;;
69152;SDS011;56261;51.580;4.578;2022-07-23T02:12:40;9.53;;;5.13;;
69152;SDS011;56261;51.580;4.578;2022-07-23T02:15:06;8.67;;;5.20;;
69152;SDS011;56261;51.580;4.578;2022-07-23T02:17:32;11.00;;;5.70;;
69152;SDS011;56261;51.580;4.578;2022-07-23T02:19:57;11.30;;;5.50;;
69152;SDS011;56261;51.580;4.578;2022-07-23T02:22:23;11.07;;;5.40;;
69152;SDS011;56261;51.580;4.578;2022-07-23T02:24:48;14.37;;;5.50;;
69152;SDS011;56261;51.580;4.578;2022-07-23T02:27:14;12.50;;;5.88;;
69152;SDS011;56261;51.580;4.578;2022-07-23T02:29:39;11.23;;;5.60;;
69152;SDS011;56261;51.580;4.578;2022-07-23T02:32:04;10.40;;;5.23;;
69152;SDS011;56261;51.580;4.578;2022-07-23T02:34:30;12.00;;;5.55;;
69152;SDS011;56261;51.580;4.578;2022-07-23T02:36:55;12.50;;;5.33;;
69152;SDS011;56261;51.580;4.578;2022-07-23T02:39:21;12.57;;;5.70;;
69152;SDS011;56261;51.580;4.578;2022-07-23T02:41:46;10.97;;;5.77;;
69152;SDS011;56261;51.580;4.578;2022-07-23T02:44:11;14.80;;;6.10;;
69152;SDS011;56261;51.580;4.578;2022-07-23T02:46:37;13.00;;;5.72;;
69152;SDS011;56261;51.580;4.578;2022-07-23T02:49:02;11.30;;;5.67;;
69152;SDS011;56261;51.580;4.578;2022-07-23T02:51:29;11.05;;;5.60;;
69152;SDS011;56261;51.580;4.578;2022-07-23T02:53:55;13.50;;;5.97;;
69152;SDS011;56261;51.580;4.578;2022-07-23T02:56:20;13.13;;;5.97;;
69152;SDS011;56261;51.580;4.578;2022-07-23T02:58:46;11.82;;;5.53;;
69152;SDS011;56261;51.580;4.578;2022-07-23T03:01:11;18.30;;;7.03;;
69152;SDS011;56261;51.580;4.578;2022-07-23T03:03:37;12.07;;;5.97;;
69152;SDS011;56261;51.580;4.578;2022-07-23T03:06:02;12.50;;;5.80;;
69152;SDS011;56261;51.580;4.578;2022-07-23T03:08:28;14.18;;;6.78;;
69152;SDS011;56261;51.580;4.578;2022-07-23T03:10:53;10.77;;;5.93;;
69152;SDS011;56261;51.580;4.578;2022-07-23T03:13:19;12.48;;;5.47;;
69152;SDS011;56261;51.580;4.578;2022-07-23T03:15:44;11.47;;;5.57;;
69152;SDS011;56261;51.580;4.578;2022-07-23T03:18:10;12.87;;;6.10;;
69152;SDS011;56261;51.580;4.578;2022-07-23T03:20:35;15.15;;;6.53;;
69152;SDS011;56261;51.580;4.578;2022-07-23T03:23:01;13.93;;;6.90;;
69152;SDS011;56261;51.580;4.578;2022-07-23T03:25:26;12.53;;;6.03;;
69152;SDS011;56261;51.580;4.578;2022-07-23T03:27:52;11.67;;;6.23;;
69152;SDS011;56261;51.580;4.578;2022-07-23T03:30:17;14.10;;;6.95;;
69152;SDS011;56261;51.580;4.578;2022-07-23T03:32:43;17.60;;;6.80;;
69152;SDS011;56261;51.580;4.578;2022-07-23T03:35:09;14.98;;;6.97;;
69152;SDS011;56261;51.580;4.578;2022-07-23T03:37:35;14.53;;;7.37;;
69152;SDS011;56261;51.580;4.578;2022-07-23T03:40:00;13.70;;;6.80;;
69152;SDS011;56261;51.580;4.578;2022-07-23T03:42:26;14.50;;;6.80;;
69152;SDS011;56261;51.580;4.578;2022-07-23T03:44:52;13.23;;;5.93;;
69152;SDS011;56261;51.580;4.578;2022-07-23T03:47:17;13.17;;;6.37;;
69152;SDS011;56261;51.580;4.578;2022-07-23T03:49:46;14.48;;;6.72;;
69152;SDS011;56261;51.580;4.578;2022-07-23T03:52:12;13.10;;;6.70;;
69152;SDS011;56261;51.580;4.578;2022-07-23T03:54:38;12.07;;;6.15;;
69152;SDS011;56261;51.580;4.578;2022-07-23T03:57:03;12.00;;;6.63;;
69152;SDS011;56261;51.580;4.578;2022-07-23T03:59:29;13.50;;;6.13;;
69152;SDS011;56261;51.580;4.578;2022-07-23T04:01:54;13.33;;;7.00;;
69152;SDS011;56261;51.580;4.578;2022-07-23T04:04:20;14.32;;;7.00;;
69152;SDS011;56261;51.580;4.578;2022-07-23T04:06:45;14.80;;;6.80;;
69152;SDS011;56261;51.580;4.578;2022-07-23T04:09:11;14.33;;;7.30;;
69152;SDS011;56261;51.580;4.578;2022-07-23T04:11:36;14.83;;;7.13;;
69152;SDS011;56261;51.580;4.578;2022-07-23T04:14:01;16.55;;;7.32;;
69152;SDS011;56261;51.580;4.578;2022-07-23T04:16:27;18.23;;;7.47;;
69152;SDS011;56261;51.580;4.578;2022-07-23T04:18:53;15.10;;;7.15;;
69152;SDS011;56261;51.580;4.578;2022-07-23T04:21:19;15.00;;;7.80;;
69152;SDS011;56261;51.580;4.578;2022-07-23T04:23:44;14.50;;;6.77;;
69152;SDS011;56261;51.580;4.578;2022-07-23T04:26:09;16.80;;;7.37;;
69152;SDS011;56261;51.580;4.578;2022-07-23T04:28:35;15.50;;;7.00;;
69152;SDS011;56261;51.580;4.578;2022-07-23T04:31:00;13.27;;;7.50;;
69152;SDS011;56261;51.580;4.578;2022-07-23T04:33:26;16.47;;;7.50;;
69152;SDS011;56261;51.580;4.578;2022-07-23T04:35:51;13.57;;;7.00;;
69152;SDS011;56261;51.580;4.578;2022-07-23T04:38:17;16.42;;;7.28;;
69152;SDS011;56261;51.580;4.578;2022-07-23T04:40:42;15.93;;;7.80;;
69152;SDS011;56261;51.580;4.578;2022-07-23T04:43:08;15.33;;;7.70;;
69152;SDS011;56261;51.580;4.578;2022-07-23T04:45:33;13.53;;;6.93;;
69152;SDS011;56261;51.580;4.578;2022-07-23T04:47:58;14.27;;;7.43;;
69152;SDS011;56261;51.580;4.578;2022-07-23T04:50:24;13.20;;;6.90;;
69152;SDS011;56261;51.580;4.578;2022-07-23T04:52:49;13.00;;;7.00;;
69152;SDS011;56261;51.580;4.578;2022-07-23T04:55:15;12.35;;;6.72;;
69152;SDS011;56261;51.580;4.578;2022-07-23T04:57:42;13.90;;;6.85;;
69152;SDS011;56261;51.580;4.578;2022-07-23T05:00:08;12.83;;;5.97;;
69152;SDS011;56261;51.580;4.578;2022-07-23T05:02:34;10.95;;;6.20;;
69152;SDS011;56261;51.580;4.578;2022-07-23T05:04:59;12.57;;;6.17;;
69152;SDS011;56261;51.580;4.578;2022-07-23T05:07:25;12.03;;;6.03;;
69152;SDS011;56261;51.580;4.578;2022-07-23T05:09:50;12.40;;;6.27;;
69152;SDS011;56261;51.580;4.578;2022-07-23T05:12:15;11.10;;;6.20;;
69152;SDS011;56261;51.580;4.578;2022-07-23T05:14:41;12.80;;;5.83;;
69152;SDS011;56261;51.580;4.578;2022-07-23T05:17:07;11.20;;;5.60;;
69152;SDS011;56261;51.580;4.578;2022-07-23T05:19:33;10.10;;;5.18;;
69152;SDS011;56261;51.580;4.578;2022-07-23T05:21:59;10.10;;;4.88;;
69152;SDS011;56261;51.580;4.578;2022-07-23T05:24:24;10.73;;;5.10;;
69152;SDS011;56261;51.580;4.578;2022-07-23T05:26:49;10.70;;;5.23;;
69152;SDS011;56261;51.580;4.578;2022-07-23T05:29:15;12.70;;;5.65;;
69152;SDS011;56261;51.580;4.578;2022-07-23T05:31:40;9.80;;;4.97;;
69152;SDS011;56261;51.580;4.578;2022-07-23T05:34:06;10.50;;;5.23;;
69152;SDS011;56261;51.580;4.578;2022-07-23T05:36:32;12.15;;;5.68;;
69152;SDS011;56261;51.580;4.578;2022-07-23T05:38:58;11.83;;;5.60;;
69152;SDS011;56261;51.580;4.578;2022-07-23T05:41:23;12.52;;;5.60;;
69152;SDS011;56261;51.580;4.578;2022-07-23T05:43:49;10.73;;;5.80;;
69152;SDS011;56261;51.580;4.578;2022-07-23T05:46:15;11.67;;;5.63;;
69152;SDS011;56261;51.580;4.578;2022-07-23T05:48:40;9.53;;;5.50;;
69152;SDS011;56261;51.580;4.578;2022-07-23T05:51:07;11.18;;;5.10;;
69152;SDS011;56261;51.580;4.578;2022-07-23T05:53:33;10.60;;;5.78;;
69152;SDS011;56261;51.580;4.578;2022-07-23T05:55:59;10.60;;;5.30;;
69152;SDS011;56261;51.580;4.578;2022-07-23T05:58:24;10.98;;;5.80;;
69152;SDS011;56261;51.580;4.578;2022-07-23T06:00:50;10.60;;;5.17;;
69152;SDS011;56261;51.580;4.578;2022-07-23T06:03:15;10.07;;;5.60;;
69152;SDS011;56261;51.580;4.578;2022-07-23T06:05:41;9.53;;;5.63;;
69152;SDS011;56261;51.580;4.578;2022-07-23T06:08:06;9.87;;;5.70;;
69152;SDS011;56261;51.580;4.578;2022-07-23T06:10:32;11.77;;;5.40;;
69152;SDS011;56261;51.580;4.578;2022-07-23T06:12:57;12.20;;;5.87;;
69152;SDS011;56261;51.580;4.578;2022-07-23T06:15:22;12.25;;;5.90;;
69152;SDS011;56261;51.580;4.578;2022-07-23T06:17:48;10.90;;;5.30;;
69152;SDS011;56261;51.580;4.578;2022-07-23T06:20:14;10.55;;;6.05;;
69152;SDS011;56261;51.580;4.578;2022-07-23T06:22:39;13.40;;;6.40;;
69152;SDS011;56261;51.580;4.578;2022-07-23T06:25:05;11.97;;;6.07;;
69152;SDS011;56261;51.580;4.578;2022-07-23T06:27:31;12.15;;;6.68;;
69152;SDS011;56261;51.580;4.578;2022-07-23T06:29:56;10.33;;;5.80;;
69152;SDS011;56261;51.580;4.578;2022-07-23T06:32:22;15.63;;;6.50;;
69152;SDS011;56261;51.580;4.578;2022-07-23T06:34:47;12.07;;;5.53;;
69152;SDS011;56261;51.580;4.578;2022-07-23T06:37:13;13.07;;;5.68;;
69152;SDS011;56261;51.580;4.578;2022-07-23T06:39:38;10.53;;;5.60;;
69152;SDS011;56261;51.580;4.578;2022-07-23T06:42:04;11.73;;;5.67;;
69152;SDS011;56261;51.580;4.578;2022-07-23T06:44:29;9.02;;;5.20;;
69152;SDS011;56261;51.580;4.578;2022-07-23T06:46:55;10.90;;;5.60;;
69152;SDS011;56261;51.580;4.578;2022-07-23T06:49:20;11.37;;;5.37;;
69152;SDS011;56261;51.580;4.578;2022-07-23T06:51:46;10.00;;;4.53;;
69152;SDS011;56261;51.580;4.578;2022-07-23T06:54:11;9.20;;;4.57;;
69152;SDS011;56261;51.580;4.578;2022-07-23T06:56:36;8.90;;;4.27;;
69152;SDS011;56261;51.580;4.578;2022-07-23T06:59:02;9.13;;;4.27;;
69152;SDS011;56261;51.580;4.578;2022-07-23T07:01:27;10.32;;;3.60;;
69152;SDS011;56261;51.580;4.578;2022-07-23T07:03:53;8.20;;;4.50;;
69152;SDS011;56261;51.580;4.578;2022-07-23T07:06:19;7.40;;;4.07;;
69152;SDS011;56261;51.580;4.578;2022-07-23T07:08:44;7.57;;;4.47;;
69152;SDS011;56261;51.580;4.578;2022-07-23T07:11:10;7.80;;;3.87;;
69152;SDS011;56261;51.580;4.578;2022-07-23T07:13:36;9.65;;;4.20;;
69152;SDS011;56261;51.580;4.578;2022-07-23T07:16:02;6.90;;;3.60;;
69152;SDS011;56261;51.580;4.578;2022-07-23T07:18:28;9.27;;;4.20;;
69152;SDS011;56261;51.580;4.578;2022-07-23T07:20:53;10.63;;;3.60;;
69152;SDS011;56261;51.580;4.578;2022-07-23T07:23:19;7.97;;;4.28;;
69152;SDS011;56261;51.580;4.578;2022-07-23T07:25:45;8.15;;;4.38;;
69152;SDS011;56261;51.580;4.578;2022-07-23T07:28:12;8.30;;;3.80;;
69152;SDS011;56261;51.580;4.578;2022-07-23T07:30:37;8.65;;;5.00;;
69152;SDS011;56261;51.580;4.578;2022-07-23T07:33:03;8.87;;;4.70;;
69152;SDS011;56261;51.580;4.578;2022-07-23T07:35:28;7.15;;;3.90;;
69152;SDS011;56261;51.580;4.578;2022-07-23T07:37:54;9.30;;;4.40;;
69152;SDS011;56261;51.580;4.578;2022-07-23T07:40:20;8.27;;;4.80;;
69152;SDS011;56261;51.580;4.578;2022-07-23T07:42:46;7.80;;;4.43;;
69152;SDS011;56261;51.580;4.578;2022-07-23T07:45:12;6.72;;;4.28;;
69152;SDS011;56261;51.580;4.578;2022-07-23T07:47:38;6.43;;;4.27;;
69152;SDS011;56261;51.580;4.578;2022-07-23T07:50:03;9.00;;;4.87;;
69152;SDS011;56261;51.580;4.578;2022-07-23T07:52:29;7.78;;;4.32;;
69152;SDS011;56261;51.580;4.578;2022-07-23T07:54:55;7.97;;;4.50;;
69152;SDS011;56261;51.580;4.578;2022-07-23T07:57:20;8.53;;;4.67;;
69152;SDS011;56261;51.580;4.578;2022-07-23T07:59:45;8.87;;;4.60;;
69152;SDS011;56261;51.580;4.578;2022-07-23T08:02:11;8.20;;;4.43;;
69152;SDS011;56261;51.580;4.578;2022-07-23T08:04:37;10.63;;;5.43;;
69152;SDS011;56261;51.580;4.578;2022-07-23T08:07:03;7.93;;;4.07;;
69152;SDS011;56261;51.580;4.578;2022-07-23T08:09:28;9.17;;;4.73;;
69152;SDS011;56261;51.580;4.578;2022-07-23T08:11:54;7.47;;;4.37;;
69152;SDS011;56261;51.580;4.578;2022-07-23T08:14:19;10.27;;;5.50;;
69152;SDS011;56261;51.580;4.578;2022-07-23T08:16:44;7.27;;;4.63;;
69152;SDS011;56261;51.580;4.578;2022-07-23T08:19:10;8.07;;;4.53;;
69152;SDS011;56261;51.580;4.578;2022-07-23T08:21:35;9.53;;;4.77;;
69152;SDS011;56261;51.580;4.578;2022-07-23T08:24:01;8.93;;;4.50;;
69152;SDS011;56261;51.580;4.578;2022-07-23T08:26:26;7.67;;;4.60;;
69152;SDS011;56261;51.580;4.578;2022-07-23T08:28:52;8.15;;;4.05;;
69152;SDS011;56261;51.580;4.578;2022-07-23T08:31:18;8.60;;;4.87;;
69152;SDS011;56261;51.580;4.578;2022-07-23T08:33:44;8.18;;;5.00;;
69152;SDS011;56261;51.580;4.578;2022-07-23T08:36:09;7.43;;;4.75;;
69152;SDS011;56261;51.580;4.578;2022-07-23T08:38:35;7.07;;;4.13;;
69152;SDS011;56261;51.580;4.578;2022-07-23T08:41:00;10.07;;;5.00;;
69152;SDS011;56261;51.580;4.578;2022-07-23T08:43:27;8.40;;;4.70;;
69152;SDS011;56261;51.580;4.578;2022-07-23T08:45:55;8.52;;;4.22;;
69152;SDS011;56261;51.580;4.578;2022-07-23T08:48:23;9.48;;;4.40;;
69152;SDS011;56261;51.580;4.578;2022-07-23T08:50:50;7.78;;;4.75;;
69152;SDS011;56261;51.580;4.578;2022-07-23T08:53:18;7.63;;;4.60;;
69152;SDS011;56261;51.580;4.578;2022-07-23T08:55:48;8.85;;;4.60;;
69152;SDS011;56261;51.580;4.578;2022-07-23T08:58:15;10.73;;;5.70;;
69152;SDS011;56261;51.580;4.578;2022-07-23T09:00:42;8.48;;;5.70;;
69152;SDS011;56261;51.580;4.578;2022-07-23T09:03:29;10.13;;;5.90;;
69152;SDS011;56261;51.580;4.578;2022-07-23T09:05:57;11.53;;;5.57;;
69152;SDS011;56261;51.580;4.578;2022-07-23T09:08:25;10.25;;;5.20;;
69152;SDS011;56261;51.580;4.578;2022-07-23T09:11:00;9.32;;;5.13;;
69152;SDS011;56261;51.580;4.578;2022-07-23T09:15:53;8.23;;;4.93;;
69152;SDS011;56261;51.580;4.578;2022-07-23T09:23:40;6.90;;;4.40;;
69152;SDS011;56261;51.580;4.578;2022-07-23T09:27:07;8.32;;;4.90;;
69152;SDS011;56261;51.580;4.578;2022-07-23T09:29:11;8.43;;;4.85;;
69152;SDS011;56261;51.580;4.578;2022-07-23T09:31:56;9.07;;;4.30;;
69152;SDS011;56261;51.580;4.578;2022-07-23T09:34:26;7.50;;;4.63;;
69152;SDS011;56261;51.580;4.578;2022-07-23T09:36:57;10.45;;;5.20;;
69152;SDS011;56261;51.580;4.578;2022-07-23T09:39:33;8.27;;;5.05;;
69152;SDS011;56261;51.580;4.578;2022-07-23T09:42:18;9.40;;;5.40;;
69152;SDS011;56261;51.580;4.578;2022-07-23T09:44:47;8.90;;;4.70;;
69152;SDS011;56261;51.580;4.578;2022-07-23T09:47:14;10.60;;;5.25;;
69152;SDS011;56261;51.580;4.578;2022-07-23T09:49:40;9.73;;;5.10;;
69152;SDS011;56261;51.580;4.578;2022-07-23T09:52:31;9.48;;;4.97;;
69152;SDS011;56261;51.580;4.578;2022-07-23T09:54:59;9.07;;;5.70;;
69152;SDS011;56261;51.580;4.578;2022-07-23T09:57:26;10.57;;;5.70;;
69152;SDS011;56261;51.580;4.578;2022-07-23T09:59:52;8.75;;;5.43;;
69152;SDS011;56261;51.580;4.578;2022-07-23T10:02:22;9.40;;;5.53;;
69152;SDS011;56261;51.580;4.578;2022-07-23T10:04:49;11.18;;;5.28;;
69152;SDS011;56261;51.580;4.578;2022-07-23T10:07:18;8.98;;;5.07;;
69152;SDS011;56261;51.580;4.578;2022-07-23T10:09:47;8.97;;;5.53;;
69152;SDS011;56261;51.580;4.578;2022-07-23T10:12:15;10.15;;;5.65;;
69152;SDS011;56261;51.580;4.578;2022-07-23T10:14:41;8.97;;;5.47;;
69152;SDS011;56261;51.580;4.578;2022-07-23T10:17:07;8.00;;;5.30;;
69152;SDS011;56261;51.580;4.578;2022-07-23T10:19:33;8.90;;;5.55;;
69152;SDS011;56261;51.580;4.578;2022-07-23T10:22:03;10.30;;;5.07;;
69152;SDS011;56261;51.580;4.578;2022-07-23T10:41:30;8.60;;;4.60;;
69152;SDS011;56261;51.580;4.578;2022-07-23T10:44:10;8.25;;;4.70;;
69152;SDS011;56261;51.580;4.578;2022-07-23T10:46:57;9.45;;;5.35;;
69152;SDS011;56261;51.580;4.578;2022-07-23T10:49:35;8.85;;;4.97;;
69152;SDS011;56261;51.580;4.578;2022-07-23T10:54:42;8.32;;;4.30;;
69152;SDS011;56261;51.580;4.578;2022-07-23T10:57:10;8.82;;;4.60;;
69152;SDS011;56261;51.580;4.578;2022-07-23T11:02:44;8.13;;;4.20;;
69152;SDS011;56261;51.580;4.578;2022-07-23T11:05:12;7.27;;;3.87;;
69152;SDS011;56261;51.580;4.578;2022-07-23T11:10:33;6.28;;;3.35;;
69152;SDS011;56261;51.580;4.578;2022-07-23T11:16:04;6.35;;;2.90;;
69152;SDS011;56261;51.580;4.578;2022-07-23T11:24:08;8.38;;;4.80;;
69152;SDS011;56261;51.580;4.578;2022-07-23T11:26:55;6.90;;;3.88;;
69152;SDS011;56261;51.580;4.578;2022-07-23T11:31:53;7.00;;;3.67;;
69152;SDS011;56261;51.580;4.578;2022-07-23T11:37:00;7.00;;;3.70;;
69152;SDS011;56261;51.580;4.578;2022-07-23T11:39:27;7.90;;;4.70;;
69152;SDS011;56261;51.580;4.578;2022-07-23T11:41:54;6.55;;;3.95;;
69152;SDS011;56261;51.580;4.578;2022-07-23T11:44:27;7.43;;;3.93;;
69152;SDS011;56261;51.580;4.578;2022-07-23T11:46:55;7.50;;;4.22;;
69152;SDS011;56261;51.580;4.578;2022-07-23T11:49:24;7.97;;;3.90;;
69152;SDS011;56261;51.580;4.578;2022-07-23T11:54:37;9.05;;;3.33;;
69152;SDS011;56261;51.580;4.578;2022-07-23T11:57:13;6.37;;;3.50;;
69152;SDS011;56261;51.580;4.578;2022-07-23T11:59:39;6.60;;;3.33;;
69152;SDS011;56261;51.580;4.578;2022-07-23T12:02:06;6.60;;;3.13;;
69152;SDS011;56261;51.580;4.578;2022-07-23T12:04:43;8.43;;;3.47;;
69152;SDS011;56261;51.580;4.578;2022-07-23T12:07:26;5.85;;;3.33;;
69152;SDS011;56261;51.580;4.578;2022-07-23T12:09:55;8.70;;;3.77;;
69152;SDS011;56261;51.580;4.578;2022-07-23T12:12:21;7.18;;;3.03;;
69152;SDS011;56261;51.580;4.578;2022-07-23T12:14:51;6.10;;;3.20;;
69152;SDS011;56261;51.580;4.578;2022-07-23T12:17:26;7.15;;;3.22;;
69152;SDS011;56261;51.580;4.578;2022-07-23T12:19:54;6.90;;;3.40;;
69152;SDS011;56261;51.580;4.578;2022-07-23T12:22:20;9.00;;;2.80;;
69152;SDS011;56261;51.580;4.578;2022-07-23T12:24:58;5.80;;;2.67;;
69152;SDS011;56261;51.580;4.578;2022-07-23T12:27:26;5.90;;;2.47;;
69152;SDS011;56261;51.580;4.578;2022-07-23T12:29:52;8.38;;;3.45;;
69152;SDS011;56261;51.580;4.578;2022-07-23T12:32:22;5.77;;;3.10;;
69152;SDS011;56261;51.580;4.578;2022-07-23T12:35:03;7.32;;;3.25;;
69152;SDS011;56261;51.580;4.578;2022-07-23T12:37:35;7.07;;;2.90;;
69152;SDS011;56261;51.580;4.578;2022-07-23T12:40:18;8.23;;;3.58;;
69152;SDS011;56261;51.580;4.578;2022-07-23T12:42:44;5.60;;;2.60;;
69152;SDS011;56261;51.580;4.578;2022-07-23T12:45:11;6.47;;;2.45;;
69152;SDS011;56261;51.580;4.578;2022-07-23T12:47:56;6.35;;;2.85;;
69152;SDS011;56261;51.580;4.578;2022-07-23T12:53:11;6.40;;;2.80;;
69152;SDS011;56261;51.580;4.578;2022-07-23T12:55:39;5.50;;;2.58;;
69152;SDS011;56261;51.580;4.578;2022-07-23T12:58:07;6.35;;;2.95;;
69152;SDS011;56261;51.580;4.578;2022-07-23T13:06:27;6.20;;;2.60;;
69152;SDS011;56261;51.580;4.578;2022-07-23T13:09:23;5.45;;;2.72;;
69152;SDS011;56261;51.580;4.578;2022-07-23T13:11:51;7.00;;;2.63;;
69152;SDS011;56261;51.580;4.578;2022-07-23T13:14:18;5.97;;;2.83;;
69152;SDS011;56261;51.580;4.578;2022-07-23T13:16:46;6.32;;;2.70;;
69152;SDS011;56261;51.580;4.578;2022-07-23T13:19:12;5.33;;;2.50;;
69152;SDS011;56261;51.580;4.578;2022-07-23T13:21:38;6.22;;;2.80;;
69152;SDS011;56261;51.580;4.578;2022-07-23T13:24:05;6.65;;;2.78;;
69152;SDS011;56261;51.580;4.578;2022-07-23T13:26:31;6.90;;;2.85;;
69152;SDS011;56261;51.580;4.578;2022-07-23T13:28:57;6.23;;;3.10;;
69152;SDS011;56261;51.580;4.578;2022-07-23T13:31:23;8.10;;;2.72;;
69152;SDS011;56261;51.580;4.578;2022-07-23T13:33:49;5.27;;;2.77;;
69152;SDS011;56261;51.580;4.578;2022-07-23T13:36:14;7.40;;;3.30;;
69152;SDS011;56261;51.580;4.578;2022-07-23T13:38:40;5.93;;;2.80;;
69152;SDS011;56261;51.580;4.578;2022-07-23T13:41:05;6.37;;;3.30;;
69152;SDS011;56261;51.580;4.578;2022-07-23T13:43:31;6.85;;;3.45;;
69152;SDS011;56261;51.580;4.578;2022-07-23T13:45:57;7.75;;;3.40;;
69152;SDS011;56261;51.580;4.578;2022-07-23T13:48:23;5.87;;;3.17;;
69152;SDS011;56261;51.580;4.578;2022-07-23T13:50:49;5.77;;;3.00;;
69152;SDS011;56261;51.580;4.578;2022-07-23T13:53:16;6.40;;;2.80;;
69152;SDS011;56261;51.580;4.578;2022-07-23T13:55:44;6.03;;;3.15;;
69152;SDS011;56261;51.580;4.578;2022-07-23T13:58:11;6.70;;;3.20;;
69152;SDS011;56261;51.580;4.578;2022-07-23T14:00:41;7.90;;;2.97;;
69152;SDS011;56261;51.580;4.578;2022-07-23T14:03:09;5.60;;;3.17;;
69152;SDS011;56261;51.580;4.578;2022-07-23T14:05:34;5.88;;;3.15;;
69152;SDS011;56261;51.580;4.578;2022-07-23T14:08:00;6.97;;;3.47;;
69152;SDS011;56261;51.580;4.578;2022-07-23T14:10:26;7.25;;;3.40;;
69152;SDS011;56261;51.580;4.578;2022-07-23T14:12:52;6.80;;;3.30;;
69152;SDS011;56261;51.580;4.578;2022-07-23T14:15:21;10.38;;;4.53;;
69152;SDS011;56261;51.580;4.578;2022-07-23T14:17:47;8.95;;;4.20;;
69152;SDS011;56261;51.580;4.578;2022-07-23T14:20:13;8.13;;;3.57;;
69152;SDS011;56261;51.580;4.578;2022-07-23T14:22:39;8.10;;;3.55;;
69152;SDS011;56261;51.580;4.578;2022-07-23T14:25:05;13.00;;;5.37;;
69152;SDS011;56261;51.580;4.578;2022-07-23T14:27:32;11.68;;;4.10;;
69152;SDS011;56261;51.580;4.578;2022-07-23T14:29:58;5.90;;;3.30;;
69152;SDS011;56261;51.580;4.578;2022-07-23T14:32:24;5.73;;;3.03;;
69152;SDS011;56261;51.580;4.578;2022-07-23T14:34:50;6.00;;;3.20;;
69152;SDS011;56261;51.580;4.578;2022-07-23T14:37:16;7.30;;;3.13;;
69152;SDS011;56261;51.580;4.578;2022-07-23T14:39:42;6.30;;;3.17;;
69152;SDS011;56261;51.580;4.578;2022-07-23T14:42:09;6.70;;;3.30;;
69152;SDS011;56261;51.580;4.578;2022-07-23T14:44:35;6.68;;;2.95;;
69152;SDS011;56261;51.580;4.578;2022-07-23T14:47:02;5.82;;;2.72;;
69152;SDS011;56261;51.580;4.578;2022-07-23T14:49:29;7.37;;;3.03;;
69152;SDS011;56261;51.580;4.578;2022-07-23T14:51:55;7.97;;;3.50;;
69152;SDS011;56261;51.580;4.578;2022-07-23T14:54:21;7.22;;;3.88;;
69152;SDS011;56261;51.580;4.578;2022-07-23T14:56:46;5.60;;;3.07;;
69152;SDS011;56261;51.580;4.578;2022-07-23T14:59:12;10.57;;;4.30;;
69152;SDS011;56261;51.580;4.578;2022-07-23T15:01:38;8.32;;;4.40;;
69152;SDS011;56261;51.580;4.578;2022-07-23T15:04:04;8.35;;;4.50;;
69152;SDS011;56261;51.580;4.578;2022-07-23T15:06:30;7.25;;;3.80;;
69152;SDS011;56261;51.580;4.578;2022-07-23T15:08:56;7.27;;;3.77;;
69152;SDS011;56261;51.580;4.578;2022-07-23T15:11:21;7.90;;;4.10;;
69152;SDS011;56261;51.580;4.578;2022-07-23T15:13:47;6.70;;;3.87;;
69152;SDS011;56261;51.580;4.578;2022-07-23T15:16:12;7.53;;;4.80;;
69152;SDS011;56261;51.580;4.578;2022-07-23T15:18:38;6.90;;;4.50;;
69152;SDS011;56261;51.580;4.578;2022-07-23T15:21:04;7.32;;;4.35;;
69152;SDS011;56261;51.580;4.578;2022-07-23T15:23:30;8.07;;;4.40;;
69152;SDS011;56261;51.580;4.578;2022-07-23T15:25:56;8.67;;;4.30;;
69152;SDS011;56261;51.580;4.578;2022-07-23T15:28:21;9.05;;;4.70;;
69152;SDS011;56261;51.580;4.578;2022-07-23T15:30:51;10.20;;;5.10;;
69152;SDS011;56261;51.580;4.578;2022-07-23T15:33:17;7.90;;;4.55;;
69152;SDS011;56261;51.580;4.578;2022-07-23T15:35:43;11.67;;;5.30;;
69152;SDS011;56261;51.580;4.578;2022-07-23T15:38:08;8.65;;;5.10;;